createdAt,value
2023-02-27T00:01:35.038Z,99.90
2023-02-27T00:04:01.830Z,99.90
2023-02-27T00:06:29.001Z,99.90
2023-02-27T00:08:55.653Z,99.90
2023-02-27T00:11:22.288Z,99.90
2023-02-27T00:13:49.273Z,99.90
2023-02-27T00:16:15.947Z,99.90
2023-02-27T00:18:42.626Z,99.90
2023-02-27T00:21:09.268Z,99.90
2023-02-27T00:23:35.918Z,99.90
2023-02-27T00:26:02.559Z,99.90
2023-02-27T00:28:29.284Z,99.90
2023-02-27T00:30:55.940Z,99.90
2023-02-27T00:33:22.626Z,99.90
2023-02-27T00:35:56.224Z,99.90
2023-02-27T00:38:22.830Z,99.90
2023-02-27T00:40:49.439Z,99.90
2023-02-27T00:43:16.070Z,99.90
2023-02-27T00:45:42.703Z,99.90
2023-02-27T00:48:09.389Z,99.90
2023-02-27T00:50:36.002Z,99.90
2023-02-27T00:53:02.654Z,99.90
2023-02-27T00:55:29.359Z,99.90
2023-02-27T00:57:56.037Z,99.90
2023-02-27T01:00:22.989Z,99.90
2023-02-27T01:02:49.668Z,99.90
2023-02-27T01:05:16.382Z,99.90
2023-02-27T01:07:43.011Z,99.90
2023-02-27T01:10:10.365Z,99.90
2023-02-27T01:12:37.089Z,99.90
2023-02-27T01:15:04.670Z,99.90
2023-02-27T01:17:31.488Z,99.90
2023-02-27T01:19:58.133Z,99.90
2023-02-27T01:22:24.949Z,99.90
2023-02-27T01:24:51.709Z,99.90
2023-02-27T01:27:18.380Z,99.90
2023-02-27T01:29:45.081Z,99.90
2023-02-27T01:32:11.770Z,99.90
2023-02-27T01:34:38.425Z,99.90
2023-02-27T01:37:05.053Z,99.90
2023-02-27T01:39:32.907Z,99.90
2023-02-27T01:42:00.057Z,99.90
2023-02-27T01:44:27.976Z,99.90
2023-02-27T01:46:54.847Z,99.90
2023-02-27T01:49:27.318Z,99.90
2023-02-27T01:51:56.215Z,99.90
2023-02-27T01:54:25.553Z,99.90
2023-02-27T01:56:52.352Z,99.90
2023-02-27T01:59:19.412Z,99.90
2023-02-27T02:01:46.117Z,99.90
2023-02-27T02:04:33.276Z,99.90
2023-02-27T02:07:02.504Z,99.90
2023-02-27T02:09:30.025Z,99.90
2023-02-27T02:11:57.140Z,99.90
2023-02-27T02:14:24.035Z,99.90
2023-02-27T02:17:12.393Z,99.90
2023-02-27T02:19:54.430Z,99.90
2023-02-27T02:22:36.225Z,99.90
2023-02-27T02:25:22.632Z,99.90
2023-02-27T02:28:01.613Z,99.90
2023-02-27T02:30:47.801Z,99.90
2023-02-27T02:33:14.442Z,99.90
2023-02-27T02:35:47.236Z,99.90
2023-02-27T02:38:16.947Z,99.90
2023-02-27T02:40:43.514Z,99.90
2023-02-27T02:43:24.750Z,99.90
2023-02-27T02:45:54.450Z,99.90
2023-02-27T02:48:41.354Z,99.90
2023-02-27T02:51:27.106Z,99.90
2023-02-27T02:54:26.329Z,99.90
2023-02-27T02:56:58.939Z,99.90
2023-02-27T02:59:44.444Z,99.90
2023-02-27T03:02:14.089Z,99.90
2023-02-27T03:04:43.864Z,99.90
2023-02-27T03:07:13.745Z,99.90
2023-02-27T03:09:49.900Z,99.90
2023-02-27T03:12:19.088Z,99.90
2023-02-27T03:15:07.873Z,99.90
2023-02-27T03:18:01.055Z,99.90
2023-02-27T03:20:37.209Z,99.90
2023-02-27T03:23:07.034Z,99.90
2023-02-27T03:25:34.554Z,99.90
2023-02-27T03:28:02.598Z,99.90
2023-02-27T03:30:45.339Z,99.90
2023-02-27T03:33:15.173Z,99.90
2023-02-27T03:35:46.825Z,99.90
2023-02-27T03:38:33.695Z,99.90
2023-02-27T03:41:18.771Z,99.90
2023-02-27T03:43:51.460Z,99.90
2023-02-27T03:46:22.264Z,99.90
2023-02-27T03:48:49.006Z,99.90
2023-02-27T03:51:18.273Z,99.90
2023-02-27T03:54:00.147Z,99.90
2023-02-27T03:56:32.750Z,99.90
2023-02-27T03:58:59.446Z,99.90
2023-02-27T04:01:26.718Z,99.90
2023-02-27T04:04:05.237Z,99.90
2023-02-27T04:06:51.110Z,99.90
2023-02-27T04:09:36.181Z,99.90
2023-02-27T04:12:21.506Z,99.90
2023-02-27T04:14:54.301Z,99.90
2023-02-27T04:17:23.222Z,99.90
2023-02-27T04:20:02.698Z,99.90
2023-02-27T04:22:29.443Z,99.90
2023-02-27T04:25:11.502Z,99.90
2023-02-27T04:27:42.830Z,99.90
2023-02-27T04:30:24.840Z,99.90
2023-02-27T04:32:51.440Z,99.90
2023-02-27T04:35:25.920Z,99.90
2023-02-27T04:38:07.773Z,99.90
2023-02-27T04:40:47.645Z,99.90
2023-02-27T04:43:14.997Z,99.90
2023-02-27T04:45:42.914Z,99.90
2023-02-27T04:48:26.185Z,99.90
2023-02-27T04:51:13.035Z,99.90
2023-02-27T04:53:39.661Z,99.90
2023-02-27T04:56:09.935Z,99.90
2023-02-27T04:58:37.894Z,99.90
2023-02-27T05:01:11.523Z,99.90
2023-02-27T05:03:40.861Z,99.90
2023-02-27T05:06:08.432Z,99.90
2023-02-27T05:08:39.293Z,99.90
2023-02-27T05:11:09.667Z,99.90
2023-02-27T05:13:46.456Z,99.90
2023-02-27T05:16:27.099Z,99.90
2023-02-27T05:18:54.422Z,99.90
2023-02-27T05:21:24.828Z,99.90
2023-02-27T05:24:27.157Z,99.90
2023-02-27T05:26:56.726Z,99.90
2023-02-27T05:29:35.702Z,99.90
2023-02-27T05:32:20.095Z,99.90
2023-02-27T05:34:47.203Z,99.90
2023-02-27T05:37:19.842Z,99.90
2023-02-27T05:39:47.122Z,99.90
2023-02-27T05:42:19.652Z,99.90
2023-02-27T05:44:49.787Z,99.90
2023-02-27T05:47:18.357Z,99.90
2023-02-27T05:49:56.432Z,99.90
2023-02-27T05:52:24.230Z,99.90
2023-02-27T05:54:53.991Z,99.90
2023-02-27T05:57:24.151Z,99.90
2023-02-27T05:59:56.267Z,99.90
2023-02-27T06:02:23.556Z,99.90
2023-02-27T06:04:50.199Z,99.90
2023-02-27T06:07:16.813Z,99.90
2023-02-27T06:09:44.326Z,99.90
2023-02-27T06:12:10.937Z,99.90
2023-02-27T06:14:37.580Z,99.90
2023-02-27T06:17:05.045Z,99.90
2023-02-27T06:19:31.688Z,99.90
2023-02-27T06:21:58.340Z,99.90
2023-02-27T06:24:25.471Z,99.90
2023-02-27T06:26:52.152Z,99.90
2023-02-27T06:29:18.801Z,99.90
2023-02-27T06:31:45.439Z,99.90
2023-02-27T06:34:12.076Z,99.90
2023-02-27T06:36:38.709Z,99.90
2023-02-27T06:39:05.433Z,99.90
2023-02-27T06:41:32.038Z,99.90
2023-02-27T06:43:58.685Z,99.90
2023-02-27T06:46:25.660Z,99.90
2023-02-27T06:48:52.455Z,99.90
2023-02-27T06:51:19.090Z,99.90
2023-02-27T06:53:45.686Z,99.90
2023-02-27T06:56:12.354Z,99.90
2023-02-27T06:58:39.001Z,99.90
2023-02-27T07:01:05.678Z,99.90
2023-02-27T07:03:32.596Z,99.90
2023-02-27T07:05:59.573Z,99.90
2023-02-27T07:08:26.265Z,99.90
2023-02-27T07:10:52.879Z,99.90
2023-02-27T07:13:19.971Z,99.90
2023-02-27T07:15:46.909Z,99.90
2023-02-27T07:18:13.644Z,99.90
2023-02-27T07:20:40.396Z,99.90
2023-02-27T07:23:07.072Z,99.90
2023-02-27T07:25:33.720Z,99.90
2023-02-27T07:28:00.340Z,99.90
2023-02-27T07:30:27.076Z,99.90
2023-02-27T07:32:53.727Z,99.90
2023-02-27T07:35:20.406Z,99.90
2023-02-27T07:37:47.513Z,99.90
2023-02-27T07:40:14.840Z,99.90
2023-02-27T07:42:41.508Z,99.90
2023-02-27T07:45:08.854Z,99.90
2023-02-27T07:47:35.856Z,99.90
2023-02-27T07:50:03.754Z,99.90
2023-02-27T07:52:31.292Z,99.90
2023-02-27T07:54:58.002Z,99.90
2023-02-27T07:57:24.686Z,99.90
2023-02-27T07:59:51.407Z,99.90
2023-02-27T08:02:18.019Z,99.90
2023-02-27T08:04:44.680Z,99.90
2023-02-27T08:07:11.353Z,99.90
2023-02-27T08:09:37.954Z,99.90
2023-02-27T08:12:04.721Z,99.90
2023-02-27T08:14:31.436Z,99.90
2023-02-27T08:16:58.054Z,99.90
2023-02-27T08:19:24.650Z,99.90
2023-02-27T08:21:51.272Z,99.90
2023-02-27T08:24:17.968Z,99.90
2023-02-27T08:26:44.625Z,99.90
2023-02-27T08:29:11.219Z,99.90
2023-02-27T08:31:37.951Z,99.90
2023-02-27T08:34:10.156Z,99.90
2023-02-27T08:36:37.667Z,99.90
2023-02-27T08:39:04.487Z,99.90
2023-02-27T08:41:31.142Z,99.90
2023-02-27T08:43:57.853Z,99.90
2023-02-27T08:46:24.811Z,99.90
2023-02-27T08:48:51.535Z,99.90
2023-02-27T08:51:18.166Z,99.90
2023-02-27T08:53:44.783Z,99.90
2023-02-27T08:56:11.471Z,99.90
2023-02-27T08:58:38.098Z,99.90
2023-02-27T09:01:04.791Z,99.90
2023-02-27T09:03:31.606Z,99.90
2023-02-27T09:05:58.511Z,99.90
2023-02-27T09:08:25.231Z,99.90
2023-02-27T09:10:55.260Z,99.90
2023-02-27T09:13:22.271Z,99.90
2023-02-27T09:15:48.986Z,99.90
2023-02-27T09:18:15.589Z,99.90
2023-02-27T09:20:42.204Z,99.90
2023-02-27T09:23:09.667Z,99.90
2023-02-27T09:25:36.612Z,99.90
2023-02-27T09:28:03.336Z,99.90
2023-02-27T09:30:30.091Z,99.90
2023-02-27T09:32:56.710Z,99.90
2023-02-27T09:35:23.385Z,99.90
2023-02-27T09:37:50.316Z,99.90
2023-02-27T09:40:40.339Z,99.90
2023-02-27T09:43:10.516Z,99.90
2023-02-27T09:45:39.264Z,99.90
2023-02-27T09:48:10.514Z,99.90
2023-02-27T09:50:37.785Z,99.90
2023-02-27T09:53:06.200Z,99.90
2023-02-27T09:55:35.575Z,99.90
2023-02-27T09:58:21.091Z,99.90
2023-02-27T10:00:57.434Z,99.90
2023-02-27T10:03:30.775Z,99.90
2023-02-27T10:06:06.245Z,99.90
2023-02-27T10:08:59.808Z,99.90
2023-02-27T10:11:32.605Z,99.90
2023-02-27T10:14:10.913Z,99.90
2023-02-27T10:16:38.038Z,99.90
2023-02-27T10:19:06.145Z,99.90
2023-02-27T10:21:38.113Z,99.90
2023-02-27T10:24:07.865Z,99.90
2023-02-27T10:26:39.988Z,99.90
2023-02-27T10:29:25.489Z,99.90
2023-02-27T10:31:56.038Z,99.90
2023-02-27T10:34:23.244Z,99.90
2023-02-27T10:36:49.914Z,99.90
2023-02-27T10:39:18.042Z,99.90
2023-02-27T10:41:45.529Z,99.90
2023-02-27T10:44:15.434Z,99.90
2023-02-27T10:46:42.260Z,99.90
2023-02-27T10:49:18.749Z,99.90
2023-02-27T10:51:46.999Z,99.90
2023-02-27T10:54:21.126Z,99.90
2023-02-27T10:56:50.406Z,99.90
2023-02-27T10:59:31.735Z,99.90
2023-02-27T11:02:03.382Z,99.90
2023-02-27T11:04:30.118Z,99.90
2023-02-27T11:06:56.932Z,99.90
2023-02-27T11:09:28.236Z,99.90
2023-02-27T11:11:55.682Z,99.90
2023-02-27T11:14:29.877Z,99.90
2023-02-27T11:16:58.125Z,99.90
2023-02-27T11:19:26.369Z,99.90
2023-02-27T11:22:11.930Z,99.90
2023-02-27T11:24:38.750Z,99.90
2023-02-27T11:27:20.923Z,99.90
2023-02-27T11:29:57.619Z,99.90
2023-02-27T11:32:26.204Z,99.90
2023-02-27T11:34:53.024Z,99.90
2023-02-27T11:37:46.090Z,99.90
2023-02-27T11:40:19.165Z,99.90
2023-02-27T11:42:48.841Z,99.90
2023-02-27T11:46:11.329Z,99.90
2023-02-27T11:48:10.357Z,99.80
2023-02-27T11:50:52.039Z,99.10
2023-02-27T11:53:24.389Z,98.30
2023-02-27T11:55:53.696Z,98.70
2023-02-27T11:58:21.958Z,97.90
2023-02-27T12:00:50.781Z,98.00
2023-02-27T12:03:17.401Z,98.30
2023-02-27T12:05:45.577Z,97.70
2023-02-27T12:08:22.654Z,98.40
2023-02-27T12:11:13.847Z,98.90
2023-02-27T12:13:42.861Z,99.10
2023-02-27T12:16:22.373Z,99.60
2023-02-27T12:18:49.742Z,99.90
2023-02-27T12:21:21.112Z,99.80
2023-02-27T12:23:50.098Z,99.90
2023-02-27T12:26:16.734Z,99.80
2023-02-27T12:28:56.132Z,99.90
2023-02-27T12:31:32.525Z,99.90
2023-02-27T12:34:02.447Z,99.10
2023-02-27T12:36:29.239Z,98.70
2023-02-27T12:38:56.109Z,98.60
2023-02-27T12:41:36.945Z,98.90
2023-02-27T12:44:10.734Z,99.40
2023-02-27T12:46:40.638Z,98.10
2023-02-27T12:49:22.080Z,98.70
2023-02-27T12:51:51.687Z,98.00
2023-02-27T12:54:18.297Z,97.50
2023-02-27T12:56:49.749Z,97.90
2023-02-27T12:59:16.330Z,97.00
2023-02-27T13:01:57.495Z,96.90
2023-02-27T13:04:27.036Z,97.10
2023-02-27T13:07:08.480Z,97.40
2023-02-27T13:09:35.079Z,97.90
2023-02-27T13:12:04.776Z,97.40
2023-02-27T13:14:34.391Z,97.60
2023-02-27T13:17:04.237Z,97.80
2023-02-27T13:19:34.473Z,97.80
2023-02-27T13:22:06.557Z,97.50
2023-02-27T13:24:33.695Z,98.20
2023-02-27T13:27:19.185Z,99.00
2023-02-27T13:29:52.412Z,98.80
2023-02-27T13:32:21.510Z,99.10
2023-02-27T13:34:54.093Z,99.40
2023-02-27T13:37:20.808Z,98.50
2023-02-27T13:39:48.666Z,99.10
2023-02-27T13:42:35.234Z,98.50
2023-02-27T13:45:03.142Z,98.80
2023-02-27T13:47:29.754Z,99.10
2023-02-27T13:50:01.861Z,99.40
2023-02-27T13:52:38.534Z,99.40
2023-02-27T13:55:25.716Z,99.80
2023-02-27T13:57:54.283Z,99.90
2023-02-27T14:00:24.843Z,99.20
2023-02-27T14:02:59.509Z,99.60
2023-02-27T14:05:38.789Z,99.60
2023-02-27T14:08:05.445Z,99.90
2023-02-27T14:10:32.601Z,99.90
2023-02-27T14:12:59.646Z,99.90
2023-02-27T14:15:26.527Z,99.90
2023-02-27T14:18:02.432Z,99.90
2023-02-27T14:20:39.730Z,99.90
2023-02-27T14:23:17.721Z,99.90
2023-02-27T14:25:45.976Z,99.90
2023-02-27T14:28:16.705Z,99.90
2023-02-27T14:30:45.604Z,99.90
2023-02-27T14:33:33.383Z,99.90
2023-02-27T14:36:06.500Z,99.90
2023-02-27T14:38:33.650Z,99.90
2023-02-27T14:41:08.114Z,99.90
2023-02-27T14:43:40.190Z,99.90
2023-02-27T14:46:19.236Z,99.90
2023-02-27T14:48:45.883Z,99.90
2023-02-27T14:51:12.620Z,99.90
2023-02-27T14:53:39.599Z,99.90
2023-02-27T14:56:06.347Z,99.90
2023-02-27T14:58:33.009Z,99.90
2023-02-27T15:01:09.654Z,99.90
2023-02-27T15:03:39.408Z,99.90
2023-02-27T15:06:15.480Z,99.90
2023-02-27T15:08:42.833Z,99.90
2023-02-27T15:11:14.013Z,99.90
2023-02-27T15:13:42.408Z,99.90
2023-02-27T15:16:38.560Z,99.90
2023-02-27T15:19:13.243Z,99.90
2023-02-27T15:21:45.320Z,99.90
2023-02-27T15:24:22.523Z,99.90
2023-02-27T15:26:52.093Z,99.90
2023-02-27T15:29:22.607Z,99.90
2023-02-27T15:31:49.620Z,99.90
2023-02-27T15:34:16.307Z,99.90
2023-02-27T15:36:46.305Z,99.90
2023-02-27T15:39:15.408Z,99.90
2023-02-27T15:42:11.731Z,99.90
2023-02-27T15:44:46.387Z,99.90
2023-02-27T15:47:15.716Z,99.90
2023-02-27T15:49:42.513Z,99.90
2023-02-27T15:52:18.300Z,99.90
2023-02-27T15:54:47.547Z,99.90
2023-02-27T15:57:14.291Z,99.90
2023-02-27T15:59:42.465Z,99.90
2023-02-27T16:02:16.305Z,99.90
2023-02-27T16:04:45.520Z,99.90
2023-02-27T16:07:18.078Z,99.90
2023-02-27T16:09:49.544Z,99.90
2023-02-27T16:12:39.728Z,99.90
2023-02-27T16:15:32.674Z,99.90
2023-02-27T16:18:00.949Z,99.90
2023-02-27T16:20:27.800Z,99.90
2023-02-27T16:23:00.892Z,99.90
2023-02-27T16:25:27.567Z,99.90
2023-02-27T16:27:54.284Z,99.90
2023-02-27T16:30:22.075Z,99.90
2023-02-27T16:32:48.827Z,99.90
2023-02-27T16:35:17.308Z,99.90
2023-02-27T16:37:45.977Z,99.90
2023-02-27T16:40:14.260Z,99.90
2023-02-27T16:42:41.236Z,99.90
2023-02-27T16:45:13.664Z,99.90
2023-02-27T16:47:40.336Z,99.90
2023-02-27T16:50:30.314Z,99.90
2023-02-27T16:52:57.567Z,99.90
2023-02-27T16:55:24.745Z,99.90
2023-02-27T16:57:51.356Z,99.90
2023-02-27T17:00:18.609Z,99.90
2023-02-27T17:02:46.793Z,99.90
2023-02-27T17:05:15.172Z,99.90
2023-02-27T17:07:42.606Z,99.90
2023-02-27T17:10:11.544Z,99.90
2023-02-27T17:12:39.133Z,99.90
2023-02-27T17:15:06.078Z,99.90
2023-02-27T17:17:32.661Z,99.90
2023-02-27T17:19:59.284Z,99.90
2023-02-27T17:22:25.965Z,99.90
2023-02-27T17:24:52.567Z,99.90
2023-02-27T17:27:19.198Z,99.90
2023-02-27T17:29:45.777Z,99.90
2023-02-27T17:32:12.413Z,99.90
2023-02-27T17:34:39.345Z,99.90
2023-02-27T17:37:06.043Z,99.90
2023-02-27T17:39:33.478Z,99.90
2023-02-27T17:42:00.094Z,99.90
2023-02-27T17:44:27.055Z,99.90
2023-02-27T17:46:53.825Z,99.90
2023-02-27T17:49:20.490Z,99.90
2023-02-27T17:51:47.225Z,99.90
2023-02-27T17:54:13.836Z,99.90
2023-02-27T17:56:40.626Z,99.90
2023-02-27T17:59:08.538Z,99.90
2023-02-27T18:01:35.581Z,99.90
2023-02-27T18:04:02.417Z,99.90
2023-02-27T18:06:29.365Z,99.90
2023-02-27T18:08:56.136Z,99.90
2023-02-27T18:11:23.152Z,99.90
2023-02-27T18:13:50.517Z,99.90
2023-02-27T18:16:17.503Z,99.90
2023-02-27T18:18:44.500Z,99.90
2023-02-27T18:21:15.551Z,99.90
2023-02-27T18:23:42.931Z,99.90
2023-02-27T18:26:27.112Z,99.90
2023-02-27T18:28:56.600Z,99.90
2023-02-27T18:31:24.746Z,99.90
2023-02-27T18:33:51.439Z,99.90
2023-02-27T18:36:18.147Z,99.90
2023-02-27T18:38:44.922Z,99.90
2023-02-27T18:41:12.514Z,99.90
2023-02-27T18:43:39.821Z,99.90
2023-02-27T18:46:06.624Z,99.90
2023-02-27T18:48:34.050Z,99.90
2023-02-27T18:51:01.532Z,99.90
2023-02-27T18:53:28.191Z,99.90
2023-02-27T18:55:59.217Z,99.90
2023-02-27T18:58:25.865Z,99.90
2023-02-27T19:00:52.524Z,99.90
2023-02-27T19:03:19.241Z,99.90
2023-02-27T19:05:46.249Z,99.90
2023-02-27T19:08:12.836Z,99.90
2023-02-27T19:10:40.439Z,99.90
2023-02-27T19:13:09.338Z,99.90
2023-02-27T19:15:35.975Z,99.90
2023-02-27T19:18:02.571Z,99.90
2023-02-27T19:20:29.190Z,99.90
2023-02-27T19:22:55.795Z,99.90
2023-02-27T19:25:22.630Z,99.90
2023-02-27T19:27:53.399Z,99.90
2023-02-27T19:30:20.097Z,99.90
2023-02-27T19:32:46.848Z,99.90
2023-02-27T19:35:15.205Z,99.90
2023-02-27T19:37:42.044Z,99.90
2023-02-27T19:40:10.019Z,99.90
2023-02-27T19:42:37.083Z,99.90
2023-02-27T19:45:03.813Z,99.90
2023-02-27T19:47:30.451Z,99.90
2023-02-27T19:49:57.021Z,99.90
2023-02-27T19:52:23.619Z,99.90
2023-02-27T19:54:50.197Z,99.90
2023-02-27T19:57:16.817Z,99.90
2023-02-27T19:59:43.482Z,99.90
2023-02-27T20:02:11.030Z,99.90
2023-02-27T20:04:37.609Z,99.90
2023-02-27T20:07:04.185Z,99.90
2023-02-27T20:09:33.210Z,99.90
2023-02-27T20:12:01.463Z,99.90
2023-02-27T20:14:28.750Z,99.90
2023-02-27T20:16:55.487Z,99.90
2023-02-27T20:19:23.447Z,99.90
2023-02-27T20:21:51.932Z,99.90
2023-02-27T20:24:18.844Z,99.90
2023-02-27T20:26:49.929Z,99.90
2023-02-27T20:29:21.069Z,99.90
2023-02-27T20:31:49.303Z,99.90
2023-02-27T20:34:17.080Z,99.90
2023-02-27T20:36:44.220Z,99.90
2023-02-27T20:39:11.689Z,99.90
2023-02-27T20:41:40.150Z,99.90
2023-02-27T20:44:08.523Z,99.90
2023-02-27T20:46:35.765Z,99.90
2023-02-27T20:49:03.639Z,99.90
2023-02-27T20:51:37.581Z,99.90
2023-02-27T20:54:06.816Z,99.90
2023-02-27T20:56:35.078Z,99.90
2023-02-27T20:59:02.823Z,99.90
2023-02-27T21:01:29.985Z,99.90
2023-02-27T21:03:57.523Z,99.90
2023-02-27T21:06:24.371Z,99.90
2023-02-27T21:08:55.285Z,99.90
2023-02-27T21:11:29.770Z,99.90
2023-02-27T21:13:57.833Z,99.90
2023-02-27T21:16:27.524Z,99.90
2023-02-27T21:18:56.458Z,99.90
2023-02-27T21:21:31.550Z,99.90
2023-02-27T21:23:58.571Z,99.90
2023-02-27T21:26:27.450Z,99.90
2023-02-27T21:28:55.805Z,99.90
2023-02-27T21:31:23.130Z,99.90
2023-02-27T21:33:49.957Z,99.90
2023-02-27T21:36:16.671Z,99.90
2023-02-27T21:38:43.305Z,99.90
2023-02-27T21:41:11.920Z,99.90
2023-02-27T21:43:40.267Z,99.90
2023-02-27T21:46:07.741Z,99.90
2023-02-27T21:48:34.535Z,99.90
2023-02-27T21:51:01.830Z,99.90
2023-02-27T21:53:28.870Z,99.90
2023-02-27T21:55:56.152Z,99.90
2023-02-27T21:58:23.034Z,99.90
2023-02-27T22:00:50.500Z,99.90
2023-02-27T22:03:17.398Z,99.90
2023-02-27T22:05:44.020Z,99.90
2023-02-27T22:08:10.664Z,99.90
2023-02-27T22:10:45.687Z,99.90
2023-02-27T22:13:13.581Z,99.90
2023-02-27T22:15:40.318Z,99.90
2023-02-27T22:18:07.141Z,99.90
2023-02-27T22:20:33.958Z,99.90
2023-02-27T22:23:02.221Z,99.90
2023-02-27T22:25:28.829Z,99.90
2023-02-27T22:27:55.421Z,99.90
2023-02-27T22:30:22.029Z,99.90
2023-02-27T22:32:49.060Z,99.90
2023-02-27T22:35:15.706Z,99.90
2023-02-27T22:37:42.284Z,99.90
2023-02-27T22:40:09.519Z,99.90
2023-02-27T22:42:36.111Z,99.90
2023-02-27T22:45:02.900Z,99.90
2023-02-27T22:47:29.508Z,99.90
2023-02-27T22:49:56.118Z,99.90
2023-02-27T22:52:22.844Z,99.90
2023-02-27T22:54:50.075Z,99.90
2023-02-27T22:57:16.670Z,99.90
2023-02-27T22:59:43.237Z,99.90
2023-02-27T23:02:10.270Z,99.90
2023-02-27T23:04:37.306Z,99.90
2023-02-27T23:07:03.985Z,99.90
2023-02-27T23:09:30.618Z,99.90
2023-02-27T23:11:58.381Z,99.90
2023-02-27T23:14:24.980Z,99.90
2023-02-27T23:16:51.705Z,99.90
2023-02-27T23:19:20.450Z,99.90
2023-02-27T23:21:47.470Z,99.90
2023-02-27T23:24:15.327Z,99.90
2023-02-27T23:26:46.906Z,99.90
2023-02-27T23:29:13.571Z,99.90
2023-02-27T23:31:40.260Z,99.90
2023-02-27T23:34:07.112Z,99.90
2023-02-27T23:36:34.996Z,99.90
2023-02-27T23:39:02.900Z,99.90
2023-02-27T23:41:29.896Z,99.90
2023-02-27T23:43:56.741Z,99.90
2023-02-27T23:46:23.368Z,99.90
2023-02-27T23:48:50.101Z,99.90
2023-02-27T23:51:16.729Z,99.90
2023-02-27T23:53:43.373Z,99.90
2023-02-27T23:56:26.714Z,99.90
2023-02-27T23:58:58.097Z,99.90
